sensor_id;sensor_type;location;lat;lon;timestamp;P1;durP1;ratioP1;P2;durP2;ratioP2
48367;SDS011;34173;47.446;18.912;2022-09-03T00:01:02;7.78;;;4.50;;
48367;SDS011;34173;47.446;18.912;2022-09-03T00:06:38;7.80;;;4.55;;
48367;SDS011;34173;47.446;18.912;2022-09-03T00:09:18;6.55;;;4.00;;
48367;SDS011;34173;47.446;18.912;2022-09-03T00:12:00;6.97;;;3.90;;
48367;SDS011;34173;47.446;18.912;2022-09-03T00:17:12;9.68;;;4.22;;
48367;SDS011;34173;47.446;18.912;2022-09-03T00:19:46;8.00;;;3.85;;
48367;SDS011;34173;47.446;18.912;2022-09-03T00:22:41;9.70;;;4.03;;
48367;SDS011;34173;47.446;18.912;2022-09-03T00:25:13;6.72;;;3.70;;
48367;SDS011;34173;47.446;18.912;2022-09-03T00:27:44;6.35;;;4.07;;
48367;SDS011;34173;47.446;18.912;2022-09-03T00:30:17;9.25;;;3.70;;
48367;SDS011;34173;47.446;18.912;2022-09-03T00:33:02;6.28;;;4.03;;
48367;SDS011;34173;47.446;18.912;2022-09-03T00:35:41;8.00;;;4.62;;
48367;SDS011;34173;47.446;18.912;2022-09-03T00:38:13;7.00;;;3.70;;
48367;SDS011;34173;47.446;18.912;2022-09-03T00:51:30;9.77;;;3.72;;
48367;SDS011;34173;47.446;18.912;2022-09-03T00:59:42;5.95;;;3.40;;
48367;SDS011;34173;47.446;18.912;2022-09-03T01:07:47;11.85;;;4.32;;
48367;SDS011;34173;47.446;18.912;2022-09-03T01:10:25;7.90;;;3.95;;
48367;SDS011;34173;47.446;18.912;2022-09-03T01:13:00;9.52;;;3.65;;
48367;SDS011;34173;47.446;18.912;2022-09-03T01:18:28;6.93;;;3.78;;
48367;SDS011;34173;47.446;18.912;2022-09-03T01:21:10;5.90;;;3.80;;
48367;SDS011;34173;47.446;18.912;2022-09-03T01:24:05;6.53;;;3.78;;
48367;SDS011;34173;47.446;18.912;2022-09-03T01:27:08;7.18;;;4.05;;
48367;SDS011;34173;47.446;18.912;2022-09-03T01:32:22;9.07;;;4.43;;
48367;SDS011;34173;47.446;18.912;2022-09-03T01:46:22;9.25;;;3.87;;
48367;SDS011;34173;47.446;18.912;2022-09-03T01:49:00;7.78;;;3.85;;
48367;SDS011;34173;47.446;18.912;2022-09-03T01:51:38;7.47;;;3.67;;
48367;SDS011;34173;47.446;18.912;2022-09-03T01:57:08;7.28;;;3.72;;
48367;SDS011;34173;47.446;18.912;2022-09-03T02:02:40;8.00;;;3.70;;
48367;SDS011;34173;47.446;18.912;2022-09-03T02:07:42;6.95;;;4.28;;
48367;SDS011;34173;47.446;18.912;2022-09-03T02:10:14;7.72;;;3.72;;
48367;SDS011;34173;47.446;18.912;2022-09-03T02:12:47;7.72;;;3.70;;
48367;SDS011;34173;47.446;18.912;2022-09-03T02:15:19;6.13;;;3.83;;
48367;SDS011;34173;47.446;18.912;2022-09-03T02:17:48;6.87;;;3.40;;
48367;SDS011;34173;47.446;18.912;2022-09-03T02:20:19;7.28;;;3.90;;
48367;SDS011;34173;47.446;18.912;2022-09-03T02:22:47;6.28;;;3.70;;
48367;SDS011;34173;47.446;18.912;2022-09-03T02:25:16;8.13;;;4.47;;
48367;SDS011;34173;47.446;18.912;2022-09-03T02:27:44;7.62;;;3.97;;
48367;SDS011;34173;47.446;18.912;2022-09-03T02:30:12;6.18;;;3.80;;
48367;SDS011;34173;47.446;18.912;2022-09-03T02:32:40;7.07;;;3.12;;
48367;SDS011;34173;47.446;18.912;2022-09-03T02:35:07;6.87;;;3.62;;
48367;SDS011;34173;47.446;18.912;2022-09-03T02:37:35;8.32;;;3.55;;
48367;SDS011;34173;47.446;18.912;2022-09-03T02:40:03;9.00;;;3.70;;
48367;SDS011;34173;47.446;18.912;2022-09-03T02:42:35;6.15;;;3.58;;
48367;SDS011;34173;47.446;18.912;2022-09-03T02:45:09;5.05;;;3.20;;
48367;SDS011;34173;47.446;18.912;2022-09-03T02:47:43;6.40;;;3.90;;
48367;SDS011;34173;47.446;18.912;2022-09-03T02:50:11;6.43;;;4.10;;
48367;SDS011;34173;47.446;18.912;2022-09-03T02:52:39;6.18;;;3.50;;
48367;SDS011;34173;47.446;18.912;2022-09-03T02:55:06;6.65;;;4.00;;
48367;SDS011;34173;47.446;18.912;2022-09-03T02:57:34;6.72;;;3.65;;
48367;SDS011;34173;47.446;18.912;2022-09-03T03:00:02;7.68;;;3.50;;
48367;SDS011;34173;47.446;18.912;2022-09-03T03:02:30;7.50;;;3.70;;
48367;SDS011;34173;47.446;18.912;2022-09-03T03:04:58;7.10;;;3.95;;
48367;SDS011;34173;47.446;18.912;2022-09-03T03:07:26;9.65;;;4.47;;
48367;SDS011;34173;47.446;18.912;2022-09-03T03:09:55;8.93;;;4.10;;
48367;SDS011;34173;47.446;18.912;2022-09-03T03:12:22;8.43;;;4.15;;
48367;SDS011;34173;47.446;18.912;2022-09-03T03:14:52;8.00;;;3.50;;
48367;SDS011;34173;47.446;18.912;2022-09-03T03:17:20;7.97;;;3.80;;
48367;SDS011;34173;47.446;18.912;2022-09-03T03:19:47;8.20;;;4.05;;
48367;SDS011;34173;47.446;18.912;2022-09-03T03:22:15;7.07;;;3.70;;
48367;SDS011;34173;47.446;18.912;2022-09-03T03:24:42;6.47;;;3.45;;
48367;SDS011;34173;47.446;18.912;2022-09-03T03:27:10;7.80;;;4.20;;
48367;SDS011;34173;47.446;18.912;2022-09-03T03:29:39;6.97;;;3.83;;
48367;SDS011;34173;47.446;18.912;2022-09-03T03:32:07;10.48;;;4.20;;
48367;SDS011;34173;47.446;18.912;2022-09-03T03:34:34;7.03;;;4.00;;
48367;SDS011;34173;47.446;18.912;2022-09-03T03:37:02;6.12;;;3.80;;
48367;SDS011;34173;47.446;18.912;2022-09-03T03:39:30;9.32;;;3.95;;
48367;SDS011;34173;47.446;18.912;2022-09-03T03:41:58;5.28;;;3.55;;
48367;SDS011;34173;47.446;18.912;2022-09-03T03:44:26;7.68;;;3.65;;
48367;SDS011;34173;47.446;18.912;2022-09-03T03:46:53;7.47;;;3.80;;
48367;SDS011;34173;47.446;18.912;2022-09-03T03:49:21;6.07;;;3.55;;
48367;SDS011;34173;47.446;18.912;2022-09-03T03:51:48;7.03;;;3.70;;
48367;SDS011;34173;47.446;18.912;2022-09-03T03:54:16;6.95;;;3.97;;
48367;SDS011;34173;47.446;18.912;2022-09-03T03:56:43;6.72;;;3.75;;
48367;SDS011;34173;47.446;18.912;2022-09-03T03:59:21;8.18;;;3.85;;
48367;SDS011;34173;47.446;18.912;2022-09-03T04:01:49;7.93;;;3.95;;
48367;SDS011;34173;47.446;18.912;2022-09-03T04:04:17;6.62;;;3.78;;
48367;SDS011;34173;47.446;18.912;2022-09-03T04:06:45;8.35;;;4.35;;
48367;SDS011;34173;47.446;18.912;2022-09-03T04:09:12;7.90;;;4.30;;
48367;SDS011;34173;47.446;18.912;2022-09-03T04:11:54;10.23;;;5.28;;
48367;SDS011;34173;47.446;18.912;2022-09-03T04:14:24;10.00;;;5.15;;
48367;SDS011;34173;47.446;18.912;2022-09-03T04:16:53;9.30;;;5.00;;
48367;SDS011;34173;47.446;18.912;2022-09-03T04:19:21;9.02;;;4.80;;
48367;SDS011;34173;47.446;18.912;2022-09-03T04:21:48;8.15;;;4.47;;
48367;SDS011;34173;47.446;18.912;2022-09-03T04:24:16;11.15;;;5.18;;
48367;SDS011;34173;47.446;18.912;2022-09-03T04:26:43;10.05;;;5.00;;
48367;SDS011;34173;47.446;18.912;2022-09-03T04:29:11;7.30;;;4.80;;
48367;SDS011;34173;47.446;18.912;2022-09-03T04:31:39;10.38;;;4.87;;
48367;SDS011;34173;47.446;18.912;2022-09-03T04:34:26;7.35;;;4.40;;
48367;SDS011;34173;47.446;18.912;2022-09-03T04:36:54;9.38;;;4.82;;
48367;SDS011;34173;47.446;18.912;2022-09-03T04:39:24;10.77;;;4.87;;
48367;SDS011;34173;47.446;18.912;2022-09-03T04:41:51;11.40;;;4.68;;
48367;SDS011;34173;47.446;18.912;2022-09-03T04:44:19;11.38;;;4.87;;
48367;SDS011;34173;47.446;18.912;2022-09-03T04:46:47;9.48;;;5.22;;
48367;SDS011;34173;47.446;18.912;2022-09-03T04:49:14;10.55;;;4.80;;
48367;SDS011;34173;47.446;18.912;2022-09-03T04:51:42;9.60;;;4.30;;
48367;SDS011;34173;47.446;18.912;2022-09-03T04:54:10;11.93;;;5.68;;
48367;SDS011;34173;47.446;18.912;2022-09-03T04:56:37;8.85;;;4.75;;
48367;SDS011;34173;47.446;18.912;2022-09-03T04:59:06;7.55;;;4.53;;
48367;SDS011;34173;47.446;18.912;2022-09-03T05:01:36;10.95;;;5.12;;
48367;SDS011;34173;47.446;18.912;2022-09-03T05:04:04;11.23;;;5.32;;
48367;SDS011;34173;47.446;18.912;2022-09-03T05:06:33;14.13;;;4.78;;
48367;SDS011;34173;47.446;18.912;2022-09-03T05:09:02;11.32;;;4.95;;
48367;SDS011;34173;47.446;18.912;2022-09-03T05:11:30;9.23;;;5.22;;
48367;SDS011;34173;47.446;18.912;2022-09-03T05:13:58;9.80;;;4.62;;
48367;SDS011;34173;47.446;18.912;2022-09-03T05:16:27;11.75;;;5.20;;
48367;SDS011;34173;47.446;18.912;2022-09-03T05:18:57;9.20;;;5.35;;
48367;SDS011;34173;47.446;18.912;2022-09-03T05:21:28;11.93;;;5.35;;
48367;SDS011;34173;47.446;18.912;2022-09-03T05:23:58;8.15;;;5.00;;
48367;SDS011;34173;47.446;18.912;2022-09-03T05:26:28;8.48;;;5.05;;
48367;SDS011;34173;47.446;18.912;2022-09-03T05:28:57;10.15;;;5.55;;
48367;SDS011;34173;47.446;18.912;2022-09-03T05:31:27;11.10;;;5.78;;
48367;SDS011;34173;47.446;18.912;2022-09-03T05:33:59;9.65;;;5.90;;
48367;SDS011;34173;47.446;18.912;2022-09-03T05:36:29;10.75;;;6.28;;
48367;SDS011;34173;47.446;18.912;2022-09-03T05:38:59;10.25;;;5.65;;
48367;SDS011;34173;47.446;18.912;2022-09-03T05:41:27;13.60;;;7.10;;
48367;SDS011;34173;47.446;18.912;2022-09-03T05:43:55;12.60;;;6.47;;
48367;SDS011;34173;47.446;18.912;2022-09-03T05:46:26;9.15;;;5.62;;
48367;SDS011;34173;47.446;18.912;2022-09-03T05:49:02;9.45;;;5.37;;
48367;SDS011;34173;47.446;18.912;2022-09-03T05:51:31;9.32;;;4.95;;
48367;SDS011;34173;47.446;18.912;2022-09-03T05:54:00;10.15;;;5.78;;
48367;SDS011;34173;47.446;18.912;2022-09-03T05:56:29;10.45;;;5.53;;
48367;SDS011;34173;47.446;18.912;2022-09-03T05:58:59;13.25;;;4.97;;
48367;SDS011;34173;47.446;18.912;2022-09-03T06:01:29;10.25;;;5.07;;
48367;SDS011;34173;47.446;18.912;2022-09-03T06:04:02;9.77;;;5.40;;
48367;SDS011;34173;47.446;18.912;2022-09-03T06:06:34;10.93;;;5.20;;
48367;SDS011;34173;47.446;18.912;2022-09-03T06:09:04;7.40;;;4.40;;
48367;SDS011;34173;47.446;18.912;2022-09-03T06:11:34;8.98;;;4.62;;
48367;SDS011;34173;47.446;18.912;2022-09-03T06:14:04;8.60;;;4.50;;
48367;SDS011;34173;47.446;18.912;2022-09-03T06:16:39;7.72;;;4.18;;
48367;SDS011;34173;47.446;18.912;2022-09-03T06:19:09;8.27;;;3.90;;
48367;SDS011;34173;47.446;18.912;2022-09-03T06:21:39;6.68;;;3.90;;
48367;SDS011;34173;47.446;18.912;2022-09-03T06:24:14;6.62;;;3.80;;
48367;SDS011;34173;47.446;18.912;2022-09-03T06:26:43;6.95;;;4.00;;
48367;SDS011;34173;47.446;18.912;2022-09-03T06:29:11;6.75;;;3.53;;
48367;SDS011;34173;47.446;18.912;2022-09-03T06:31:39;5.72;;;2.87;;
48367;SDS011;34173;47.446;18.912;2022-09-03T06:34:07;5.85;;;3.17;;
48367;SDS011;34173;47.446;18.912;2022-09-03T06:36:35;5.37;;;3.00;;
48367;SDS011;34173;47.446;18.912;2022-09-03T06:39:02;6.45;;;3.33;;
48367;SDS011;34173;47.446;18.912;2022-09-03T06:41:30;4.93;;;2.85;;
48367;SDS011;34173;47.446;18.912;2022-09-03T06:44:01;5.37;;;2.95;;
48367;SDS011;34173;47.446;18.912;2022-09-03T06:46:33;4.85;;;2.90;;
48367;SDS011;34173;47.446;18.912;2022-09-03T06:49:02;5.82;;;2.65;;
48367;SDS011;34173;47.446;18.912;2022-09-03T06:51:30;6.40;;;2.87;;
48367;SDS011;34173;47.446;18.912;2022-09-03T06:54:00;5.10;;;2.87;;
48367;SDS011;34173;47.446;18.912;2022-09-03T06:56:29;5.72;;;3.05;;
48367;SDS011;34173;47.446;18.912;2022-09-03T06:59:05;6.10;;;3.12;;
48367;SDS011;34173;47.446;18.912;2022-09-03T07:01:34;5.95;;;3.50;;
48367;SDS011;34173;47.446;18.912;2022-09-03T07:04:04;6.35;;;3.00;;
48367;SDS011;34173;47.446;18.912;2022-09-03T07:06:33;9.55;;;3.30;;
48367;SDS011;34173;47.446;18.912;2022-09-03T07:09:07;10.05;;;4.05;;
48367;SDS011;34173;47.446;18.912;2022-09-03T07:11:35;8.95;;;4.35;;
48367;SDS011;34173;47.446;18.912;2022-09-03T07:14:03;6.07;;;3.70;;
48367;SDS011;34173;47.446;18.912;2022-09-03T07:16:32;7.75;;;3.70;;
48367;SDS011;34173;47.446;18.912;2022-09-03T07:19:02;8.88;;;4.22;;
48367;SDS011;34173;47.446;18.912;2022-09-03T07:21:31;8.88;;;4.40;;
48367;SDS011;34173;47.446;18.912;2022-09-03T07:24:00;9.95;;;4.37;;
48367;SDS011;34173;47.446;18.912;2022-09-03T07:26:30;7.57;;;4.37;;
48367;SDS011;34173;47.446;18.912;2022-09-03T07:28:59;10.45;;;5.10;;
48367;SDS011;34173;47.446;18.912;2022-09-03T07:31:28;9.00;;;4.68;;
48367;SDS011;34173;47.446;18.912;2022-09-03T07:33:59;8.50;;;4.20;;
48367;SDS011;34173;47.446;18.912;2022-09-03T07:36:41;8.93;;;3.60;;
48367;SDS011;34173;47.446;18.912;2022-09-03T07:39:10;8.57;;;3.67;;
48367;SDS011;34173;47.446;18.912;2022-09-03T07:41:38;8.40;;;4.28;;
48367;SDS011;34173;47.446;18.912;2022-09-03T07:44:09;9.02;;;3.47;;
48367;SDS011;34173;47.446;18.912;2022-09-03T07:46:37;6.28;;;3.47;;
48367;SDS011;34173;47.446;18.912;2022-09-03T07:49:06;6.87;;;3.55;;
48367;SDS011;34173;47.446;18.912;2022-09-03T07:51:34;7.60;;;3.37;;
48367;SDS011;34173;47.446;18.912;2022-09-03T07:54:04;8.98;;;3.58;;
48367;SDS011;34173;47.446;18.912;2022-09-03T07:56:34;7.07;;;3.62;;
48367;SDS011;34173;47.446;18.912;2022-09-03T07:59:02;6.65;;;3.22;;
48367;SDS011;34173;47.446;18.912;2022-09-03T08:01:31;5.90;;;3.25;;
48367;SDS011;34173;47.446;18.912;2022-09-03T08:03:59;6.97;;;3.35;;
48367;SDS011;34173;47.446;18.912;2022-09-03T08:06:28;8.60;;;3.42;;
48367;SDS011;34173;47.446;18.912;2022-09-03T08:09:04;6.18;;;3.03;;
48367;SDS011;34173;47.446;18.912;2022-09-03T08:11:35;5.95;;;2.92;;
48367;SDS011;34173;47.446;18.912;2022-09-03T08:14:04;9.48;;;3.15;;
48367;SDS011;34173;47.446;18.912;2022-09-03T08:16:34;5.28;;;2.78;;
48367;SDS011;34173;47.446;18.912;2022-09-03T08:19:07;4.90;;;2.85;;
48367;SDS011;34173;47.446;18.912;2022-09-03T08:21:36;6.62;;;2.75;;
48367;SDS011;34173;47.446;18.912;2022-09-03T08:24:03;7.43;;;3.17;;
48367;SDS011;34173;47.446;18.912;2022-09-03T08:26:33;7.10;;;2.67;;
48367;SDS011;34173;47.446;18.912;2022-09-03T08:29:02;6.37;;;3.28;;
48367;SDS011;34173;47.446;18.912;2022-09-03T08:31:31;6.47;;;2.45;;
48367;SDS011;34173;47.446;18.912;2022-09-03T08:33:59;6.87;;;2.90;;
48367;SDS011;34173;47.446;18.912;2022-09-03T08:39:03;7.30;;;3.15;;
48367;SDS011;34173;47.446;18.912;2022-09-03T08:46:52;7.75;;;2.65;;
48367;SDS011;34173;47.446;18.912;2022-09-03T08:50:15;6.00;;;3.17;;
48367;SDS011;34173;47.446;18.912;2022-09-03T08:52:28;5.85;;;2.95;;
48367;SDS011;34173;47.446;18.912;2022-09-03T08:57:44;6.00;;;2.62;;
48367;SDS011;34173;47.446;18.912;2022-09-03T09:00:14;4.87;;;2.62;;
48367;SDS011;34173;47.446;18.912;2022-09-03T09:02:48;6.55;;;2.78;;
48367;SDS011;34173;47.446;18.912;2022-09-03T09:05:28;8.20;;;2.60;;
48367;SDS011;34173;47.446;18.912;2022-09-03T09:08:19;5.45;;;2.50;;
48367;SDS011;34173;47.446;18.912;2022-09-03T09:11:16;7.62;;;2.83;;
48367;SDS011;34173;47.446;18.912;2022-09-03T09:22:28;5.85;;;2.92;;
48367;SDS011;34173;47.446;18.912;2022-09-03T09:24:58;6.65;;;2.72;;
48367;SDS011;34173;47.446;18.912;2022-09-03T09:27:28;17.12;;;3.22;;
48367;SDS011;34173;47.446;18.912;2022-09-03T09:29:56;4.78;;;2.53;;
48367;SDS011;34173;47.446;18.912;2022-09-03T09:32:28;4.43;;;2.40;;
48367;SDS011;34173;47.446;18.912;2022-09-03T09:34:57;4.47;;;2.33;;
48367;SDS011;34173;47.446;18.912;2022-09-03T09:37:25;5.35;;;2.40;;
48367;SDS011;34173;47.446;18.912;2022-09-03T09:39:56;5.97;;;3.10;;
48367;SDS011;34173;47.446;18.912;2022-09-03T09:42:25;5.40;;;2.70;;
48367;SDS011;34173;47.446;18.912;2022-09-03T09:44:53;4.45;;;2.65;;
48367;SDS011;34173;47.446;18.912;2022-09-03T09:47:25;8.63;;;2.80;;
48367;SDS011;34173;47.446;18.912;2022-09-03T09:49:57;7.45;;;2.67;;
48367;SDS011;34173;47.446;18.912;2022-09-03T09:52:27;4.62;;;2.67;;
48367;SDS011;34173;47.446;18.912;2022-09-03T09:55:12;5.72;;;2.75;;
48367;SDS011;34173;47.446;18.912;2022-09-03T09:57:41;5.07;;;2.65;;
48367;SDS011;34173;47.446;18.912;2022-09-03T10:00:11;5.78;;;2.60;;
48367;SDS011;34173;47.446;18.912;2022-09-03T10:02:47;5.23;;;2.20;;
48367;SDS011;34173;47.446;18.912;2022-09-03T10:10:23;7.25;;;2.87;;
48367;SDS011;34173;47.446;18.912;2022-09-03T10:12:55;4.20;;;2.33;;
48367;SDS011;34173;47.446;18.912;2022-09-03T10:15:46;4.93;;;2.72;;
48367;SDS011;34173;47.446;18.912;2022-09-03T10:21:14;5.57;;;2.05;;
48367;SDS011;34173;47.446;18.912;2022-09-03T10:23:49;5.25;;;2.33;;
48367;SDS011;34173;47.446;18.912;2022-09-03T10:26:23;6.75;;;2.50;;
48367;SDS011;34173;47.446;18.912;2022-09-03T10:28:59;4.68;;;2.17;;
48367;SDS011;34173;47.446;18.912;2022-09-03T10:34:05;4.62;;;1.90;;
48367;SDS011;34173;47.446;18.912;2022-09-03T10:39:21;3.70;;;1.98;;
48367;SDS011;34173;47.446;18.912;2022-09-03T10:42:31;4.62;;;1.90;;
48367;SDS011;34173;47.446;18.912;2022-09-03T10:45:11;3.85;;;2.20;;
48367;SDS011;34173;47.446;18.912;2022-09-03T10:50:52;7.05;;;2.45;;
48367;SDS011;34173;47.446;18.912;2022-09-03T10:56:10;4.18;;;1.77;;
48367;SDS011;34173;47.446;18.912;2022-09-03T10:58:49;5.68;;;2.20;;
48367;SDS011;34173;47.446;18.912;2022-09-03T11:07:00;5.85;;;2.10;;
48367;SDS011;34173;47.446;18.912;2022-09-03T11:12:26;4.37;;;1.60;;
48367;SDS011;34173;47.446;18.912;2022-09-03T11:15:02;2.70;;;1.35;;
48367;SDS011;34173;47.446;18.912;2022-09-03T11:18:20;4.87;;;1.62;;
48367;SDS011;34173;47.446;18.912;2022-09-03T11:20:33;6.47;;;1.67;;
48367;SDS011;34173;47.446;18.912;2022-09-03T11:23:02;4.30;;;1.65;;
48367;SDS011;34173;47.446;18.912;2022-09-03T11:25:31;4.05;;;1.90;;
48367;SDS011;34173;47.446;18.912;2022-09-03T11:28:11;2.92;;;1.50;;
48367;SDS011;34173;47.446;18.912;2022-09-03T11:30:50;3.90;;;1.70;;
48367;SDS011;34173;47.446;18.912;2022-09-03T11:33:25;3.05;;;1.80;;
48367;SDS011;34173;47.446;18.912;2022-09-03T11:35:55;5.32;;;1.73;;
48367;SDS011;34173;47.446;18.912;2022-09-03T11:38:25;3.62;;;1.45;;
48367;SDS011;34173;47.446;18.912;2022-09-03T11:40:57;5.82;;;1.35;;
48367;SDS011;34173;47.446;18.912;2022-09-03T11:46:08;3.47;;;1.58;;
48367;SDS011;34173;47.446;18.912;2022-09-03T11:48:54;4.97;;;1.80;;
48367;SDS011;34173;47.446;18.912;2022-09-03T11:56:47;4.20;;;1.25;;
48367;SDS011;34173;47.446;18.912;2022-09-03T11:59:17;3.10;;;1.55;;
48367;SDS011;34173;47.446;18.912;2022-09-03T12:02:01;3.10;;;1.50;;
48367;SDS011;34173;47.446;18.912;2022-09-03T12:16:14;4.15;;;1.40;;
48367;SDS011;34173;47.446;18.912;2022-09-03T12:18:50;4.50;;;1.30;;
48367;SDS011;34173;47.446;18.912;2022-09-03T12:21:21;4.47;;;1.33;;
48367;SDS011;34173;47.446;18.912;2022-09-03T12:23:50;3.03;;;1.37;;
48367;SDS011;34173;47.446;18.912;2022-09-03T12:26:25;2.87;;;1.42;;
48367;SDS011;34173;47.446;18.912;2022-09-03T12:28:54;2.80;;;1.45;;
48367;SDS011;34173;47.446;18.912;2022-09-03T12:31:24;3.85;;;1.60;;
48367;SDS011;34173;47.446;18.912;2022-09-03T12:33:58;5.53;;;1.62;;
48367;SDS011;34173;47.446;18.912;2022-09-03T12:36:40;4.75;;;1.65;;
48367;SDS011;34173;47.446;18.912;2022-09-03T12:39:13;3.40;;;1.90;;
48367;SDS011;34173;47.446;18.912;2022-09-03T12:41:52;3.30;;;1.55;;
48367;SDS011;34173;47.446;18.912;2022-09-03T12:44:28;4.22;;;1.50;;
48367;SDS011;34173;47.446;18.912;2022-09-03T12:50:04;3.47;;;1.80;;
48367;SDS011;34173;47.446;18.912;2022-09-03T12:52:58;3.53;;;1.52;;
48367;SDS011;34173;47.446;18.912;2022-09-03T12:55:39;4.03;;;1.70;;
48367;SDS011;34173;47.446;18.912;2022-09-03T13:00:41;7.57;;;1.60;;
48367;SDS011;34173;47.446;18.912;2022-09-03T13:05:43;4.32;;;1.40;;
48367;SDS011;34173;47.446;18.912;2022-09-03T13:08:17;2.28;;;1.27;;
48367;SDS011;34173;47.446;18.912;2022-09-03T13:10:52;3.10;;;1.58;;
48367;SDS011;34173;47.446;18.912;2022-09-03T13:13:23;3.83;;;1.45;;
48367;SDS011;34173;47.446;18.912;2022-09-03T13:24:05;4.22;;;1.98;;
48367;SDS011;34173;47.446;18.912;2022-09-03T13:29:21;3.28;;;1.37;;
48367;SDS011;34173;47.446;18.912;2022-09-03T13:32:02;2.58;;;1.15;;
48367;SDS011;34173;47.446;18.912;2022-09-03T13:34:39;3.00;;;1.30;;
48367;SDS011;34173;47.446;18.912;2022-09-03T13:37:25;3.80;;;1.62;;
48367;SDS011;34173;47.446;18.912;2022-09-03T13:39:56;4.07;;;1.50;;
48367;SDS011;34173;47.446;18.912;2022-09-03T13:44:58;2.85;;;1.55;;
48367;SDS011;34173;47.446;18.912;2022-09-03T13:51:14;3.15;;;1.35;;
48367;SDS011;34173;47.446;18.912;2022-09-03T13:57:04;3.65;;;1.80;;
48367;SDS011;34173;47.446;18.912;2022-09-03T14:05:04;4.18;;;1.50;;
48367;SDS011;34173;47.446;18.912;2022-09-03T14:13:03;5.53;;;1.55;;
48367;SDS011;34173;47.446;18.912;2022-09-03T14:21:19;4.53;;;1.40;;
48367;SDS011;34173;47.446;18.912;2022-09-03T14:23:54;4.07;;;1.52;;
48367;SDS011;34173;47.446;18.912;2022-09-03T14:26:51;3.10;;;1.37;;
48367;SDS011;34173;47.446;18.912;2022-09-03T14:29:27;4.32;;;1.52;;
48367;SDS011;34173;47.446;18.912;2022-09-03T14:32:01;2.50;;;1.50;;
48367;SDS011;34173;47.446;18.912;2022-09-03T14:34:51;4.28;;;1.60;;
48367;SDS011;34173;47.446;18.912;2022-09-03T14:50:43;4.70;;;1.58;;
48367;SDS011;34173;47.446;18.912;2022-09-03T15:02:10;3.03;;;1.40;;
48367;SDS011;34173;47.446;18.912;2022-09-03T15:07:40;4.53;;;1.62;;
48367;SDS011;34173;47.446;18.912;2022-09-03T15:13:20;3.25;;;1.50;;
48367;SDS011;34173;47.446;18.912;2022-09-03T15:21:49;6.40;;;1.70;;
48367;SDS011;34173;47.446;18.912;2022-09-03T15:24:31;3.87;;;1.40;;
48367;SDS011;34173;47.446;18.912;2022-09-03T15:30:00;2.80;;;1.50;;
48367;SDS011;34173;47.446;18.912;2022-09-03T15:35:23;2.72;;;1.50;;
48367;SDS011;34173;47.446;18.912;2022-09-03T15:38:05;4.22;;;1.50;;
48367;SDS011;34173;47.446;18.912;2022-09-03T15:45:53;3.00;;;1.50;;
48367;SDS011;34173;47.446;18.912;2022-09-03T15:48:37;3.00;;;1.50;;
48367;SDS011;34173;47.446;18.912;2022-09-03T15:51:29;4.22;;;1.42;;
48367;SDS011;34173;47.446;18.912;2022-09-03T15:54:09;3.08;;;1.45;;
48367;SDS011;34173;47.446;18.912;2022-09-03T15:56:40;4.22;;;1.48;;
48367;SDS011;34173;47.446;18.912;2022-09-03T16:07:04;3.37;;;1.33;;
48367;SDS011;34173;47.446;18.912;2022-09-03T16:15:25;5.00;;;2.35;;
48367;SDS011;34173;47.446;18.912;2022-09-03T16:20:38;4.37;;;2.10;;
48367;SDS011;34173;47.446;18.912;2022-09-03T16:23:11;5.10;;;2.42;;
48367;SDS011;34173;47.446;18.912;2022-09-03T16:25:45;4.15;;;2.20;;
48367;SDS011;34173;47.446;18.912;2022-09-03T16:28:18;5.30;;;2.40;;
48367;SDS011;34173;47.446;18.912;2022-09-03T16:41:35;5.80;;;2.60;;
48367;SDS011;34173;47.446;18.912;2022-09-03T16:44:23;6.78;;;3.03;;
48367;SDS011;34173;47.446;18.912;2022-09-03T17:20:34;7.37;;;4.72;;
48367;SDS011;34173;47.446;18.912;2022-09-03T17:23:03;12.60;;;7.82;;
48367;SDS011;34173;47.446;18.912;2022-09-03T17:25:39;9.55;;;5.32;;
48367;SDS011;34173;47.446;18.912;2022-09-03T17:36:52;6.80;;;4.53;;
48367;SDS011;34173;47.446;18.912;2022-09-03T17:39:30;10.18;;;4.57;;
48367;SDS011;34173;47.446;18.912;2022-09-03T17:42:13;8.85;;;4.72;;
48367;SDS011;34173;47.446;18.912;2022-09-03T17:44:49;9.57;;;5.40;;
48367;SDS011;34173;47.446;18.912;2022-09-03T17:48:02;15.35;;;5.80;;
48367;SDS011;34173;47.446;18.912;2022-09-03T17:50:43;8.55;;;5.32;;
48367;SDS011;34173;47.446;18.912;2022-09-03T17:53:27;8.35;;;5.25;;
48367;SDS011;34173;47.446;18.912;2022-09-03T17:56:05;9.32;;;5.68;;
48367;SDS011;34173;47.446;18.912;2022-09-03T17:59:05;9.15;;;5.18;;
48367;SDS011;34173;47.446;18.912;2022-09-03T18:01:38;9.43;;;4.72;;
48367;SDS011;34173;47.446;18.912;2022-09-03T18:06:59;13.38;;;5.70;;
48367;SDS011;34173;47.446;18.912;2022-09-03T18:09:39;15.05;;;6.95;;
48367;SDS011;34173;47.446;18.912;2022-09-03T18:12:10;14.45;;;8.23;;
48367;SDS011;34173;47.446;18.912;2022-09-03T18:17:32;11.80;;;5.37;;
48367;SDS011;34173;47.446;18.912;2022-09-03T18:20:05;10.25;;;4.70;;
48367;SDS011;34173;47.446;18.912;2022-09-03T18:25:55;10.95;;;4.40;;
48367;SDS011;34173;47.446;18.912;2022-09-03T18:28:46;14.60;;;4.68;;
48367;SDS011;34173;47.446;18.912;2022-09-03T18:31:35;8.32;;;4.40;;
48367;SDS011;34173;47.446;18.912;2022-09-03T18:34:26;9.80;;;4.25;;
48367;SDS011;34173;47.446;18.912;2022-09-03T18:37:20;9.50;;;4.22;;
48367;SDS011;34173;47.446;18.912;2022-09-03T18:40:17;9.55;;;4.22;;
48367;SDS011;34173;47.446;18.912;2022-09-03T18:46:06;9.32;;;4.72;;
48367;SDS011;34173;47.446;18.912;2022-09-03T18:49:24;8.13;;;3.70;;
48367;SDS011;34173;47.446;18.912;2022-09-03T18:58:48;8.70;;;3.92;;
48367;SDS011;34173;47.446;18.912;2022-09-03T19:02:00;7.72;;;4.25;;
48367;SDS011;34173;47.446;18.912;2022-09-03T19:14:38;6.68;;;3.72;;
48367;SDS011;34173;47.446;18.912;2022-09-03T19:17:40;6.65;;;3.25;;
48367;SDS011;34173;47.446;18.912;2022-09-03T19:23:54;5.95;;;3.40;;
48367;SDS011;34173;47.446;18.912;2022-09-03T19:26:52;5.68;;;3.20;;
48367;SDS011;34173;47.446;18.912;2022-09-03T19:30:11;5.60;;;3.37;;
48367;SDS011;34173;47.446;18.912;2022-09-03T19:36:15;8.05;;;3.37;;
48367;SDS011;34173;47.446;18.912;2022-09-03T19:51:15;7.35;;;3.40;;
48367;SDS011;34173;47.446;18.912;2022-09-03T19:54:04;6.47;;;3.55;;
48367;SDS011;34173;47.446;18.912;2022-09-03T19:56:56;9.38;;;3.78;;
48367;SDS011;34173;47.446;18.912;2022-09-03T19:59:44;6.45;;;3.55;;
48367;SDS011;34173;47.446;18.912;2022-09-03T20:02:38;7.57;;;3.72;;
48367;SDS011;34173;47.446;18.912;2022-09-03T20:05:25;8.07;;;3.62;;
48367;SDS011;34173;47.446;18.912;2022-09-03T20:08:12;7.57;;;3.87;;
48367;SDS011;34173;47.446;18.912;2022-09-03T20:10:59;7.43;;;3.70;;
48367;SDS011;34173;47.446;18.912;2022-09-03T20:13:27;7.35;;;3.10;;
48367;SDS011;34173;47.446;18.912;2022-09-03T20:16:16;7.00;;;3.53;;
48367;SDS011;34173;47.446;18.912;2022-09-03T20:18:51;7.68;;;3.90;;
48367;SDS011;34173;47.446;18.912;2022-09-03T20:27:28;8.55;;;3.65;;
48367;SDS011;34173;47.446;18.912;2022-09-03T20:30:05;6.97;;;4.47;;
48367;SDS011;34173;47.446;18.912;2022-09-03T20:35:19;8.38;;;3.75;;
48367;SDS011;34173;47.446;18.912;2022-09-03T20:40:52;5.95;;;3.80;;
48367;SDS011;34173;47.446;18.912;2022-09-03T20:52:18;7.37;;;4.00;;
48367;SDS011;34173;47.446;18.912;2022-09-03T20:55:00;8.40;;;3.92;;
48367;SDS011;34173;47.446;18.912;2022-09-03T20:58:20;8.07;;;3.60;;
48367;SDS011;34173;47.446;18.912;2022-09-03T21:00:22;7.87;;;3.80;;
48367;SDS011;34173;47.446;18.912;2022-09-03T21:06:06;6.80;;;3.78;;